Time;durP1;ratioP1;P1;durP2;ratioP2;P2;SDS_P1;SDS_P2;PMS_P1;PMS_P2;Temp;Humidity;BMP_temperature;BMP_pressure;BME280_temperature;BME280_humidity;BME280_pressure;Samples;Min_cycle;Max_cycle;Signal;HPM_P1;HPM_P2
2023/05/06 00:01:25;;;;;;;4.10;3.70;;;;;;;14.24;100.00;98220.13;5071348;28;20621;-78
2023/05/06 00:03:53;;;;;;;4.30;3.80;;;;;;;14.22;100.00;98219.44;5071563;28;20231;-78
2023/05/06 00:06:20;;;;;;;3.93;3.53;;;;;;;14.17;100.00;98216.28;5071279;28;20787;-78
2023/05/06 00:08:46;;;;;;;3.80;3.50;;;;;;;14.14;100.00;98211.22;5071483;28;20209;-78
2023/05/06 00:11:13;;;;;;;4.10;3.70;;;;;;;14.14;100.00;98221.00;5071230;28;20204;-78
2023/05/06 00:13:39;;;;;;;4.43;4.00;;;;;;;14.13;100.00;98214.00;5071310;28;20737;-78
2023/05/06 00:16:06;;;;;;;5.37;3.87;;;;;;;14.13;100.00;98214.81;5071289;28;20229;-78
2023/05/06 00:18:32;;;;;;;4.23;3.80;;;;;;;14.13;100.00;98212.16;5071094;28;20211;-78
2023/05/06 00:21:00;;;;;;;4.30;3.50;;;;;;;14.14;100.00;98215.69;5070998;28;20205;-78
2023/05/06 00:23:27;;;;;;;4.03;3.63;;;;;;;14.16;100.00;98213.72;5071449;28;20222;-77
2023/05/06 00:25:54;;;;;;;4.20;3.80;;;;;;;14.19;100.00;98213.53;5071367;28;20234;-77
2023/05/06 00:28:20;;;;;;;5.10;4.03;;;;;;;14.16;100.00;98211.06;5071237;28;20220;-77
2023/05/06 00:30:47;;;;;;;3.93;3.43;;;;;;;14.18;100.00;98214.47;5070807;28;20205;-77
2023/05/06 00:33:13;;;;;;;4.00;3.37;;;;;;;14.14;100.00;98213.03;5071342;28;20223;-77
2023/05/06 00:35:40;;;;;;;4.80;3.50;;;;;;;14.13;100.00;98208.69;5071357;28;20240;-77
2023/05/06 00:38:10;;;;;;;3.93;3.23;;;;;;;14.09;100.00;98212.56;5071376;28;20208;-78
2023/05/06 00:40:36;;;;;;;4.50;3.40;;;;;;;14.06;100.00;98212.81;5071276;28;20300;-77
2023/05/06 00:43:03;;;;;;;3.70;3.40;;;;;;;14.02;100.00;98216.69;5071092;28;20217;-78
2023/05/06 00:45:30;;;;;;;4.90;3.60;;;;;;;13.99;100.00;98216.94;5070987;28;20238;-78
2023/05/06 00:47:57;;;;;;;3.43;3.10;;;;;;;13.99;100.00;98216.94;5070889;28;20205;-78
2023/05/06 00:50:24;;;;;;;3.80;3.20;;;;;;;13.98;100.00;98212.56;5070836;28;20217;-79
2023/05/06 00:52:53;;;;;;;3.93;3.30;;;;;;;13.96;100.00;98211.88;5070852;28;20215;-78
2023/05/06 00:55:21;;;;;;;3.70;2.80;;;;;;;13.99;100.00;98214.28;5070900;28;20258;-77
2023/05/06 00:57:49;;;;;;;3.73;3.33;;;;;;;13.94;100.00;98219.13;5070945;28;20209;-77
2023/05/06 01:00:16;;;;;;;3.47;3.10;;;;;;;13.93;100.00;98217.44;5070278;28;20674;-77
2023/05/06 01:02:43;;;;;;;6.60;3.50;;;;;;;13.94;100.00;98219.13;5071048;28;20666;-78
2023/05/06 01:05:10;;;;;;;6.93;3.43;;;;;;;13.94;100.00;98221.78;5070929;28;20584;-77
2023/05/06 01:07:46;;;;;;;5.70;3.63;;;;;;;13.97;100.00;98211.75;5070883;28;20241;-78
2023/05/06 01:10:21;;;;;;;5.60;4.40;;;;;;;13.99;100.00;98211.63;5072244;28;20220;-78
2023/05/06 01:12:57;;;;;;;4.27;3.87;;;;;;;13.98;100.00;98205.47;5074539;28;20217;-79
2023/05/06 01:15:31;;;;;;;4.57;4.17;;;;;;;13.98;100.00;98207.25;5074661;28;20226;-79
2023/05/06 01:17:58;;;;;;;5.13;4.30;;;;;;;14.02;100.00;98206.06;5074817;28;20300;-78
2023/05/06 01:20:27;;;;;;;4.37;3.97;;;;;;;13.99;100.00;98201.00;5074698;28;20243;-78
2023/05/06 01:22:54;;;;;;;4.33;3.83;;;;;;;13.99;100.00;98203.66;5074439;28;20215;-78
2023/05/06 01:25:22;;;;;;;4.37;3.97;;;;;;;13.96;100.00;98202.09;5074375;28;20241;-77
2023/05/06 01:27:49;;;;;;;4.97;4.30;;;;;;;13.98;100.00;98209.91;5074648;28;20206;-77
2023/05/06 01:30:17;;;;;;;4.77;4.20;;;;;;;13.97;100.00;98208.25;5073958;28;20225;-77
2023/05/06 01:32:52;;;;;;;4.80;4.10;;;;;;;13.95;100.00;98204.88;5074383;28;20210;-79
2023/05/06 01:35:27;;;;;;;5.17;4.10;;;;;;;13.93;100.00;98204.16;5074250;28;20225;-78
2023/05/06 01:38:05;;;;;;;4.63;4.23;;;;;;;13.97;100.00;98202.91;5074226;28;20210;-78
2023/05/06 01:40:35;;;;;;;5.13;4.63;;;;;;;13.97;100.00;98208.25;5074097;28;20229;-78
2023/05/06 01:43:04;;;;;;;5.20;4.20;;;;;;;13.98;100.00;98216.09;5073988;28;20211;-79
2023/05/06 01:45:35;;;;;;;6.43;4.27;;;;;;;13.98;100.00;98209.91;5073945;28;20245;-78
2023/05/06 01:48:01;;;;;;;5.60;5.10;;;;;;;14.00;100.00;98214.16;5074050;28;20215;-79
2023/05/06 01:50:29;;;;;;;5.37;4.20;;;;;;;14.03;100.00;98219.22;5074199;28;20210;-79
2023/05/06 01:52:58;;;;;;;6.07;5.17;;;;;;;14.07;100.00;98219.81;5073951;28;20205;-78
2023/05/06 01:55:25;;;;;;;5.70;5.20;;;;;;;14.04;100.00;98218.25;5073677;28;20709;-78
2023/05/06 01:57:53;;;;;;;6.10;5.40;;;;;;;14.04;100.00;98218.25;5073939;28;20217;-81
2023/05/06 02:00:20;;;;;;;5.93;5.43;;;;;;;14.02;100.00;98216.69;5073676;28;20608;-79
2023/05/06 02:02:47;;;;;;;8.13;5.63;;;;;;;14.05;100.00;98211.97;5074056;28;20224;-79
2023/05/06 02:05:13;;;;;;;6.53;5.20;;;;;;;14.04;100.00;98209.41;5073778;28;20299;-79
2023/05/06 02:07:39;;;;;;;5.90;5.30;;;;;;;14.06;100.00;98212.81;5073731;28;20218;-79
2023/05/06 02:10:07;;;;;;;7.00;5.90;;;;;;;14.09;100.00;98204.56;5073452;28;20214;-79
2023/05/06 02:12:33;;;;;;;7.93;6.57;;;;;;;14.07;100.00;98206.53;5073625;28;20673;-78
2023/05/06 02:15:01;;;;;;;7.13;5.67;;;;;;;14.09;100.00;98196.59;5073415;28;20233;-79
2023/05/06 02:17:28;;;;;;;7.97;5.80;;;;;;;14.07;100.00;98214.50;5073622;28;20211;-79
2023/05/06 02:19:54;;;;;;;7.27;5.97;;;;;;;14.06;100.00;98213.66;5073491;28;20214;-79
2023/05/06 02:22:21;;;;;;;6.97;6.00;;;;;;;14.04;100.00;98212.06;5073374;28;20328;-78
2023/05/06 02:24:47;;;;;;;6.20;5.57;;;;;;;14.10;100.00;98214.22;5073302;28;20231;-78
2023/05/06 02:27:14;;;;;;;6.20;5.57;;;;;;;14.08;100.00;98221.50;5073495;28;20485;-80
2023/05/06 02:29:40;;;;;;;7.87;5.83;;;;;;;14.03;100.00;98200.63;5073418;28;20296;-79
2023/05/06 02:32:08;;;;;;;7.93;6.43;;;;;;;14.05;100.00;98203.16;5073400;28;20220;-81
2023/05/06 02:34:34;;;;;;;6.53;5.90;;;;;;;14.01;100.00;98201.72;5073124;28;20751;-81
2023/05/06 02:37:01;;;;;;;7.23;6.23;;;;;;;14.00;100.00;98197.38;5073330;28;20220;-81
2023/05/06 02:39:27;;;;;;;6.70;5.73;;;;;;;14.01;100.00;98199.06;5073130;28;20214;-81
2023/05/06 02:41:54;;;;;;;7.13;6.43;;;;;;;14.04;100.00;98199.66;5073035;28;20218;-81
2023/05/06 02:44:20;;;;;;;7.13;5.97;;;;;;;13.99;100.00;98199.16;5072844;28;20512;-80
2023/05/06 02:46:47;;;;;;;7.57;6.17;;;;;;;13.99;100.00;98195.69;5072861;28;20234;-81
2023/05/06 02:49:15;;;;;;;6.80;5.73;;;;;;;14.01;100.00;98193.75;5072679;28;20549;-81
2023/05/06 02:51:41;;;;;;;5.93;5.40;;;;;;;14.03;100.00;98197.09;5072874;28;20415;-80
2023/05/06 02:54:08;;;;;;;6.10;5.47;;;;;;;13.99;100.00;98190.38;5072885;28;20209;-81
2023/05/06 02:56:34;;;;;;;6.87;6.10;;;;;;;13.97;100.00;98195.81;5098821;22;20248;-87
2023/05/06 02:59:01;;;;;;;6.63;5.77;;;;;;;13.94;100.00;98196.03;5074532;28;20333;-87
2023/05/06 03:01:27;;;;;;;5.77;5.27;;;;;;;13.94;100.00;98197.88;5073478;28;20220;-87
2023/05/06 03:03:54;;;;;;;6.60;6.00;;;;;;;13.91;100.00;98196.31;5073859;28;20224;-87
2023/05/06 03:06:22;;;;;;;6.97;5.77;;;;;;;13.92;100.00;98195.34;5072852;28;20237;-88
2023/05/06 03:08:48;;;;;;;6.57;5.97;;;;;;;13.91;100.00;98198.09;5073099;28;20212;-87
2023/05/06 03:11:15;;;;;;;6.27;5.30;;;;;;;13.89;100.00;98202.72;5072736;28;20225;-86
2023/05/06 03:13:41;;;;;;;6.80;5.73;;;;;;;13.86;100.00;98200.28;5072809;28;20687;-86
2023/05/06 03:16:12;;;;;;;7.00;6.13;;;;;;;13.86;100.00;98210.91;5073099;28;20229;-86
2023/05/06 03:18:38;;;;;;;6.73;5.67;;;;;;;13.86;100.00;98201.16;5072988;28;20206;-88
2023/05/06 03:21:05;;;;;;;6.30;5.70;;;;;;;13.86;100.00;98205.59;5072294;28;20213;-87
2023/05/06 03:23:32;;;;;;;6.57;5.97;;;;;;;13.85;100.00;98204.78;5072773;28;20217;-87
2023/05/06 03:25:59;;;;;;;6.50;5.60;;;;;;;13.88;100.00;98203.69;5072616;28;20693;-87
2023/05/06 03:28:25;;;;;;;8.43;6.20;;;;;;;13.83;100.00;98201.41;5072701;28;20208;-86
2023/05/06 03:30:52;;;;;;;6.77;6.03;;;;;;;13.82;100.00;98199.69;5072643;28;20213;-87
2023/05/06 03:33:18;;;;;;;6.20;5.60;;;;;;;13.79;100.00;98199.97;5072219;28;20214;-87
2023/05/06 03:35:45;;;;;;;6.73;6.03;;;;;;;13.79;100.00;98199.97;5072626;28;20583;-87
2023/05/06 03:38:11;;;;;;;7.50;6.20;;;;;;;13.77;100.00;98201.06;5072437;28;20215;-87
2023/05/06 03:40:39;;;;;;;7.07;6.37;;;;;;;13.74;100.00;98206.63;5072025;28;20220;-87
2023/05/06 03:43:06;;;;;;;7.37;6.63;;;;;;;13.68;100.00;98192.00;5072727;28;20295;-85
2023/05/06 03:45:32;;;;;;;7.43;6.37;;;;;;;13.61;100.00;98192.63;5072636;28;20230;-86
2023/05/06 03:47:59;;;;;;;10.07;7.03;;;;;;;13.56;100.00;98192.16;5072316;28;20237;-87
2023/05/06 03:50:25;;;;;;;7.43;6.73;;;;;;;13.50;100.00;98187.34;5072431;28;20291;-87
2023/05/06 03:52:52;;;;;;;9.97;6.80;;;;;;;13.39;100.00;98190.00;5072283;28;20304;-87
2023/05/06 03:55:19;;;;;;;8.00;7.20;;;;;;;13.33;100.00;98179.88;5071989;28;20237;-86
2023/05/06 03:57:46;;;;;;;7.77;6.70;;;;;;;13.20;100.00;98189.78;5072161;28;20211;-86
2023/05/06 04:00:14;;;;;;;8.00;7.10;;;;;;;13.11;100.00;98191.34;5072094;28;20216;-86
2023/05/06 04:02:41;;;;;;;8.07;7.27;;;;;;;13.03;100.00;98184.94;5072162;28;20208;-86
2023/05/06 04:05:08;;;;;;;7.97;7.17;;;;;;;12.92;100.00;98190.19;5072082;28;20234;-87
2023/05/06 04:07:34;;;;;;;8.73;7.57;;;;;;;12.89;100.00;98190.44;5071930;28;20235;-86
2023/05/06 04:10:01;;;;;;;10.63;8.20;;;;;;;12.82;100.00;98191.84;5072025;28;20264;-86
2023/05/06 04:12:27;;;;;;;8.93;7.47;;;;;;;12.73;100.00;98180.19;5072215;28;20249;-86
2023/05/06 04:14:55;;;;;;;8.87;6.93;;;;;;;12.67;100.00;98179.78;5071924;28;20232;-86
2023/05/06 04:17:22;;;;;;;10.17;8.10;;;;;;;12.67;100.00;98185.09;5071912;28;20235;-86
2023/05/06 04:19:48;;;;;;;10.87;8.33;;;;;;;12.65;100.00;98181.72;5071735;28;20235;-86
2023/05/06 04:22:15;;;;;;;10.13;8.40;;;;;;;12.64;100.00;98186.19;5071834;28;20212;-86
2023/05/06 04:24:41;;;;;;;11.10;8.70;;;;;;;12.62;100.00;98188.09;5071573;28;20217;-86
2023/05/06 04:27:08;;;;;;;10.40;8.63;;;;;;;12.61;100.00;98190.88;5071623;28;20225;-86
2023/05/06 04:29:34;;;;;;;10.57;8.60;;;;;;;12.60;100.00;98189.19;5071817;28;20219;-86
2023/05/06 04:32:03;;;;;;;8.47;7.53;;;;;;;12.60;100.00;98195.31;5072139;28;20739;-86
2023/05/06 04:34:30;;;;;;;9.00;8.07;;;;;;;12.60;100.00;98197.13;5072457;28;20210;-86
2023/05/06 04:36:57;;;;;;;9.87;7.97;;;;;;;12.60;100.00;98194.50;5090350;28;20237;-86
2023/05/06 04:39:23;;;;;;;9.33;7.40;;;;;;;12.59;100.00;98208.72;5096882;28;20203;-86
2023/05/06 04:41:50;;;;;;;11.07;8.23;;;;;;;12.63;100.00;98207.50;5097096;28;20233;-87
2023/05/06 04:44:18;;;;;;;8.33;7.43;;;;;;;12.64;100.00;98206.53;5097587;28;20191;-86
2023/05/06 04:46:45;;;;;;;9.70;7.77;;;;;;;12.64;100.00;98202.09;5099582;28;20349;-87
2023/05/06 04:49:12;;;;;;;8.40;7.23;;;;;;;12.67;100.00;98206.31;5078213;28;20209;-87
2023/05/06 04:51:39;;;;;;;10.67;8.17;;;;;;;12.73;100.00;98201.41;5076889;28;20670;-88
2023/05/06 04:54:06;;;;;;;9.23;8.07;;;;;;;12.81;100.00;98214.91;5076710;28;20305;-88
2023/05/06 04:56:33;;;;;;;9.03;7.80;;;;;;;12.86;100.00;98211.91;5076748;28;20716;-87
2023/05/06 04:58:59;;;;;;;9.83;7.80;;;;;;;12.92;100.00;98211.41;5076001;28;20204;-87
2023/05/06 05:01:26;;;;;;;12.20;8.53;;;;;;;13.02;100.00;98213.25;5075290;28;20214;-88
2023/05/06 05:03:52;;;;;;;10.47;8.10;;;;;;;13.10;100.00;98210.88;5075599;28;20209;-88
2023/05/06 05:06:20;;;;;;;9.63;8.13;;;;;;;13.23;100.00;98226.69;5075511;28;20247;-88
2023/05/06 05:08:47;;;;;;;9.83;7.90;;;;;;;13.29;100.00;98221.75;5075412;28;20210;-88
2023/05/06 05:11:13;;;;;;;9.30;8.10;;;;;;;13.39;100.00;98229.81;5075157;28;20220;-87
2023/05/06 05:13:40;;;;;;;8.50;7.57;;;;;;;13.53;100.00;98224.25;5075330;28;20214;-86
2023/05/06 05:16:06;;;;;;;8.03;7.23;;;;;;;13.59;100.00;98227.28;5075193;28;20240;-87
2023/05/06 05:18:36;;;;;;;7.93;7.13;;;;;;;13.66;100.00;98235.59;5075856;28;20207;-87
2023/05/06 05:21:02;;;;;;;8.30;7.43;;;;;;;13.70;100.00;98237.88;5075171;28;20209;-87
2023/05/06 05:23:30;;;;;;;8.93;6.90;;;;;;;13.76;100.00;98231.25;5075689;28;20211;-87
2023/05/06 05:25:57;;;;;;;7.77;6.93;;;;;;;13.80;100.00;98244.16;5074815;28;20230;-87
2023/05/06 05:28:23;;;;;;;7.50;6.80;;;;;;;13.91;100.00;98237.97;5075165;28;20213;-87
2023/05/06 05:30:50;;;;;;;8.70;6.90;;;;;;;13.99;100.00;98243.53;5076888;28;20209;-87
2023/05/06 05:33:16;;;;;;;7.80;7.00;;;;;;;14.16;100.00;98248.28;5091700;28;20219;-87
2023/05/06 05:35:43;;;;;;;8.10;7.30;;;;;;;14.35;100.00;98240.56;5100650;28;20211;-86
2023/05/06 05:38:09;;;;;;;6.53;5.77;;;;;;;14.86;100.00;98244.16;5100636;28;20217;-87
2023/05/06 05:40:37;;;;;;;7.40;5.40;;;;;;;15.42;100.00;98254.34;5092382;28;20290;-87
2023/05/06 05:43:03;;;;;;;4.67;4.27;;;;;;;16.16;100.00;98254.72;5088922;28;20225;-87
2023/05/06 05:45:30;;;;;;;3.77;3.47;;;;;;;16.72;100.00;98255.81;5088673;28;20473;-87
2023/05/06 05:47:57;;;;;;;3.60;3.30;;;;;;;17.20;100.00;98248.56;5076504;28;20234;-86
2023/05/06 05:50:24;;;;;;;4.07;3.10;;;;;;;17.59;100.00;98250.16;5074655;28;20219;-86
2023/05/06 05:52:51;;;;;;;3.87;3.07;;;;;;;17.91;100.00;98239.88;5074692;28;20206;-86
2023/05/06 05:55:18;;;;;;;3.90;2.73;;;;;;;18.07;98.26;98240.09;5073740;28;20735;-86
2023/05/06 05:57:45;;;;;;;2.97;2.67;;;;;;;18.29;94.49;98236.97;5074706;28;20204;-86
2023/05/06 06:00:13;;;;;;;3.87;2.50;;;;;;;18.60;94.47;98238.31;5074262;28;20234;-87
2023/05/06 06:02:39;;;;;;;3.23;2.50;;;;;;;18.82;87.29;98221.78;5074323;28;20249;-87
2023/05/06 06:05:07;;;;;;;2.77;2.57;;;;;;;18.87;86.72;98234.69;5074603;28;20317;-87
2023/05/06 06:07:34;;;;;;;2.33;2.13;;;;;;;18.91;87.40;98236.09;5074537;28;20237;-87
2023/05/06 06:10:00;;;;;;;3.17;2.40;;;;;;;18.96;85.71;98231.94;5073971;28;20689;-87
2023/05/06 06:12:26;;;;;;;4.07;2.53;;;;;;;19.09;84.80;98235.03;5074609;28;20225;-87
2023/05/06 06:14:55;;;;;;;2.40;2.20;;;;;;;19.32;85.37;98235.44;5074084;28;20218;-85
2023/05/06 06:17:21;;;;;;;3.53;2.27;;;;;;;19.32;82.72;98230.06;5074548;28;20250;-86
2023/05/06 06:19:49;;;;;;;2.30;2.10;;;;;;;19.06;79.75;98219.28;5073762;28;20214;-87
2023/05/06 06:22:16;;;;;;;2.20;2.00;;;;;;;18.71;83.29;98235.41;5074676;28;20239;-85
2023/05/06 06:24:43;;;;;;;3.57;2.60;;;;;;;18.71;80.78;98224.69;5074252;28;20208;-87
2023/05/06 06:27:09;;;;;;;3.07;2.67;;;;;;;18.45;82.73;98239.84;5074008;28;20238;-87
2023/05/06 06:29:36;;;;;;;2.83;2.20;;;;;;;17.86;83.18;98241.34;5073894;28;20199;-87
2023/05/06 06:32:05;;;;;;;2.60;2.37;;;;;;;17.56;85.31;98247.78;5073921;28;20658;-86
2023/05/06 06:34:31;;;;;;;3.23;2.77;;;;;;;17.24;88.74;98249.97;5073935;28;20211;-88
2023/05/06 06:36:59;;;;;;;4.97;2.87;;;;;;;16.97;89.79;98255.22;5073851;28;20223;-86
2023/05/06 06:39:25;;;;;;;3.47;2.60;;;;;;;16.78;91.83;98267.72;5073659;28;20207;-87
2023/05/06 06:41:52;;;;;;;3.03;2.70;;;;;;;16.71;93.51;98278.13;5073731;28;20207;-88
2023/05/06 06:44:18;;;;;;;3.63;2.33;;;;;;;16.64;97.73;98282.34;5074170;28;20207;-88
2023/05/06 06:46:45;;;;;;;3.23;2.40;;;;;;;16.64;100.00;98285.00;5073660;28;20467;-88
2023/05/06 06:49:13;;;;;;;2.93;2.57;;;;;;;16.59;97.25;98281.09;5073547;28;20216;-88
2023/05/06 06:51:39;;;;;;;4.10;3.30;;;;;;;16.53;96.79;98282.47;5073554;28;20234;-87
2023/05/06 06:54:08;;;;;;;3.57;2.83;;;;;;;16.34;98.45;98285.06;5094992;28;20207;-86
2023/05/06 06:56:34;;;;;;;4.63;3.27;;;;;;;16.39;99.55;98293.53;5076465;28;20260;-87
2023/05/06 06:59:01;;;;;;;4.70;3.07;;;;;;;16.32;99.77;98281.72;5074972;28;20211;-86
2023/05/06 07:01:27;;;;;;;3.30;3.00;;;;;;;16.35;100.00;98285.94;5073563;28;20306;-87
2023/05/06 07:03:54;;;;;;;4.07;3.47;;;;;;;16.44;100.00;98279.78;5073754;28;20210;-80
2023/05/06 07:06:22;;;;;;;4.90;3.27;;;;;;;16.35;100.00;98281.41;5072844;28;20234;-79
2023/05/06 07:08:48;;;;;;;3.60;3.30;;;;;;;16.41;100.00;98282.75;5071940;28;20293;-79
2023/05/06 07:11:15;;;;;;;4.87;3.40;;;;;;;16.37;100.00;98279.47;5072474;28;20211;-78
2023/05/06 07:13:41;;;;;;;6.27;3.40;;;;;;;16.47;99.09;98279.53;5072819;28;20221;-77
2023/05/06 07:16:08;;;;;;;4.90;3.37;;;;;;;16.44;98.39;98279.78;5072826;28;20242;-77
2023/05/06 07:18:34;;;;;;;5.03;3.30;;;;;;;16.51;99.23;98286.28;5072825;28;20226;-79
2023/05/06 07:21:01;;;;;;;5.23;3.20;;;;;;;16.63;98.83;98286.00;5072637;28;20221;-79
2023/05/06 07:23:29;;;;;;;6.03;3.85;;;;;;;16.91;97.75;98279.81;5070600;28;20442;-77
2023/05/06 07:25:55;;;;;;;3.83;3.10;;;;;;;17.01;96.42;98285.97;5070971;28;20537;-78
2023/05/06 07:28:22;;;;;;;3.13;2.80;;;;;;;17.09;94.96;98286.13;5072417;28;20231;-79
2023/05/06 07:30:50;;;;;;;2.50;2.30;;;;;;;17.09;96.26;98288.81;5072290;28;20216;-79
2023/05/06 07:33:16;;;;;;;4.47;2.60;;;;;;;17.11;96.59;98285.97;5072209;28;20215;-79
2023/05/06 07:35:43;;;;;;;3.50;2.37;;;;;;;17.04;92.40;98280.38;5072341;28;20238;-77
2023/05/06 07:38:09;;;;;;;2.80;2.30;;;;;;;17.04;89.99;98279.50;5072183;28;20204;-78
2023/05/06 07:40:37;;;;;;;3.13;2.70;;;;;;;16.97;90.97;98289.94;5072131;28;20212;-79
2023/05/06 07:43:04;;;;;;;4.47;3.47;;;;;;;17.14;90.70;98280.34;5072448;28;20215;-79
2023/05/06 07:45:30;;;;;;;2.33;2.13;;;;;;;17.22;86.17;98273.31;5072228;28;20235;-79
2023/05/06 07:47:57;;;;;;;2.23;1.93;;;;;;;17.30;83.08;98265.41;5072232;28;20226;-80
2023/05/06 07:50:24;;;;;;;1.97;1.77;;;;;;;17.30;82.76;98268.06;5071913;28;20207;-78
2023/05/06 07:52:50;;;;;;;3.70;1.90;;;;;;;17.23;83.36;98275.00;5071979;28;20400;-77
2023/05/06 07:55:17;;;;;;;2.60;2.40;;;;;;;17.23;83.10;98274.13;5071917;28;20717;-76
2023/05/06 07:57:46;;;;;;;4.77;2.87;;;;;;;17.08;81.15;98275.59;5072247;28;20286;-78
2023/05/06 08:00:13;;;;;;;2.53;2.33;;;;;;;16.96;82.50;98272.19;5071717;28;20212;-78
2023/05/06 08:02:42;;;;;;;2.50;2.20;;;;;;;16.86;81.72;98271.38;5072104;28;20203;-76
2023/05/06 08:05:10;;;;;;;2.30;1.90;;;;;;;16.82;81.37;98275.31;5071791;28;20304;-76
2023/05/06 08:07:36;;;;;;;2.17;1.80;;;;;;;16.97;87.30;98295.28;5071920;28;20261;-77
2023/05/06 08:10:03;;;;;;;2.30;1.97;;;;;;;17.15;88.20;98293.56;5071455;28;20211;-76
2023/05/06 08:12:30;;;;;;;2.80;2.57;;;;;;;17.48;91.05;98303.78;5071720;28;20211;-78
2023/05/06 08:14:58;;;;;;;2.87;2.00;;;;;;;17.82;89.01;98304.97;5071776;28;20234;-78
2023/05/06 08:17:24;;;;;;;5.43;3.73;;;;;;;18.24;85.10;98289.25;5071289;28;20206;-76
2023/05/06 08:19:50;;;;;;;4.73;4.23;;;;;;;18.48;86.84;98302.94;5071186;28;20219;-78
2023/05/06 08:22:17;;;;;;;4.60;4.20;;;;;;;18.50;86.43;98301.81;5071795;28;20203;-78
2023/05/06 08:24:44;;;;;;;4.87;4.40;;;;;;;18.55;85.98;98296.00;5071548;28;20216;-77
2023/05/06 08:27:10;;;;;;;4.50;4.10;;;;;;;18.73;87.91;98300.38;5071601;28;20231;-78
2023/05/06 08:29:37;;;;;;;5.87;4.63;;;;;;;18.77;85.34;98292.88;5071311;28;20708;-78
2023/05/06 08:32:06;;;;;;;5.20;4.70;;;;;;;18.83;82.80;98282.38;5071551;28;20697;-76
2023/05/06 08:34:33;;;;;;;4.40;4.00;;;;;;;18.82;83.11;98286.06;5071380;28;20207;-76
2023/05/06 08:37:01;;;;;;;4.87;4.37;;;;;;;18.84;82.44;98286.75;5071617;28;20273;-76
2023/05/06 08:39:27;;;;;;;3.13;2.93;;;;;;;18.60;78.20;98278.47;5071160;28;20298;-76
2023/05/06 08:41:56;;;;;;;4.70;4.30;;;;;;;18.57;82.89;98297.53;5071581;28;20212;-78
2023/05/06 08:44:24;;;;;;;3.97;3.23;;;;;;;18.56;82.10;98293.16;5071430;28;20208;-77
2023/05/06 08:46:51;;;;;;;3.20;2.60;;;;;;;18.44;75.40;98264.94;5071269;28;20235;-75
2023/05/06 08:49:19;;;;;;;2.90;2.27;;;;;;;18.22;74.33;98251.94;5071237;28;20260;-78
2023/05/06 08:51:49;;;;;;;2.43;2.23;;;;;;;18.14;72.70;98257.22;5071391;28;20222;-78
2023/05/06 08:54:17;;;;;;;2.57;2.30;;;;;;;18.20;74.45;98256.63;5071470;28;20213;-78
2023/05/06 08:56:47;;;;;;;2.40;2.10;;;;;;;18.41;76.31;98270.56;5099006;22;20728;-84
2023/05/06 08:59:14;;;;;;;2.50;1.67;;;;;;;18.73;75.88;98270.94;5090554;28;20218;-84
2023/05/06 09:01:40;;;;;;;2.30;1.90;;;;;;;18.98;75.29;98272.81;5091364;28;20215;-84
2023/05/06 09:04:07;;;;;;;1.40;1.30;;;;;;;19.17;72.83;98258.38;5091426;28;20213;-84
2023/05/06 09:06:35;;;;;;;3.27;1.90;;;;;;;19.27;67.92;98246.59;5091050;28;20231;-84
2023/05/06 09:09:02;;;;;;;1.50;1.40;;;;;;;19.42;68.64;98242.34;5090885;28;20301;-84
2023/05/06 09:11:29;;;;;;;2.03;1.50;;;;;;;19.66;67.60;98238.97;5091011;28;20268;-84
2023/05/06 09:14:11;;;;;;;1.77;1.40;;;;;;;19.76;65.74;98240.50;5091005;28;20279;-84
2023/05/06 09:16:39;;;;;;;3.63;1.40;;;;;;;19.84;64.83;98235.22;5091037;28;20229;-84
2023/05/06 09:19:06;;;;;;;1.90;1.80;;;;;;;19.61;63.74;98234.09;5090674;28;20260;-84
2023/05/06 09:21:33;;;;;;;1.80;1.70;;;;;;;19.66;62.42;98217.50;5090875;28;20217;-84
2023/05/06 09:24:02;;;;;;;1.80;1.70;;;;;;;19.67;59.09;98201.25;5090984;28;20207;-84
2023/05/06 09:26:30;;;;;;;2.43;1.30;;;;;;;19.48;60.07;98212.22;5090816;28;20234;-84
2023/05/06 09:28:57;;;;;;;1.60;1.50;;;;;;;19.43;61.34;98213.69;5090653;28;20232;-84
2023/05/06 09:31:24;;;;;;;1.50;1.40;;;;;;;19.21;58.81;98201.66;5092854;28;20230;-84
2023/05/06 09:33:50;;;;;;;1.60;1.40;;;;;;;19.29;60.06;98212.47;5094881;28;20207;-84
2023/05/06 09:36:17;;;;;;;2.33;1.70;;;;;;;19.21;62.43;98225.78;5094769;28;20253;-83
2023/05/06 09:38:44;;;;;;;2.63;1.50;;;;;;;19.42;60.98;98218.22;5094447;28;20213;-84
2023/05/06 09:41:12;;;;;;;1.73;1.23;;;;;;;19.59;63.80;98237.94;5094752;28;20679;-84
2023/05/06 09:43:43;;;;;;;1.37;1.27;;;;;;;19.76;59.95;98219.06;5094770;28;20199;-84
2023/05/06 09:46:10;;;;;;;1.53;1.30;;;;;;;19.84;61.10;98219.13;5094702;28;20339;-84
2023/05/06 09:48:37;;;;;;;1.97;1.27;;;;;;;20.01;61.35;98218.19;5094414;28;20222;-84
2023/05/06 09:51:06;;;;;;;1.30;1.20;;;;;;;20.16;58.82;98200.47;5094279;28;20217;-82
2023/05/06 09:53:35;;;;;;;1.90;1.70;;;;;;;20.17;57.85;98202.16;5094052;28;20245;-82
2023/05/06 09:56:03;;;;;;;1.30;1.20;;;;;;;20.35;60.33;98216.28;5093791;28;20280;-83
2023/05/06 09:58:32;;;;;;;1.50;1.10;;;;;;;20.58;60.47;98219.16;5094393;28;20582;-84
2023/05/06 10:01:00;;;;;;;1.23;1.13;;;;;;;20.88;60.79;98224.78;5093955;28;20504;-84
2023/05/06 10:03:27;;;;;;;1.20;1.10;;;;;;;21.05;59.13;98199.59;5094340;28;20244;-83
2023/05/06 10:05:56;;;;;;;2.40;1.37;;;;;;;21.16;59.24;98199.22;5094215;28;20709;-83
2023/05/06 10:08:24;;;;;;;1.90;1.30;;;;;;;21.19;59.80;98206.09;5094437;28;20575;-83
2023/05/06 10:10:51;;;;;;;1.20;1.10;;;;;;;21.27;58.21;98198.03;5094637;28;20213;-81
2023/05/06 10:13:21;;;;;;;1.63;1.47;;;;;;;21.24;55.14;98172.34;5094776;28;20203;-80
2023/05/06 10:15:50;;;;;;;2.30;1.17;;;;;;;21.09;53.84;98155.22;5094739;28;20260;-80
2023/05/06 10:18:18;;;;;;;1.57;1.40;;;;;;;21.00;53.32;98156.25;5094637;28;20676;-83
2023/05/06 10:20:45;;;;;;;1.33;1.10;;;;;;;20.94;52.77;98148.00;5093648;28;20233;-85
2023/05/06 10:23:21;;;;;;;2.10;1.40;;;;;;;20.95;53.63;98152.38;5094584;28;20211;-84
2023/05/06 10:25:51;;;;;;;1.67;1.10;;;;;;;20.74;53.29;98142.16;5094237;28;20240;-85
2023/05/06 10:28:19;;;;;;;2.03;1.33;;;;;;;20.64;53.10;98141.47;5094333;28;20282;-85
2023/05/06 10:30:47;;;;;;;1.40;1.30;;;;;;;20.76;53.61;98133.88;5093728;28;20207;-85
2023/05/06 10:33:15;;;;;;;2.17;1.73;;;;;;;20.95;51.87;98123.66;5094157;28;20215;-84
2023/05/06 10:35:49;;;;;;;1.47;1.13;;;;;;;20.99;52.89;98135.75;5093917;28;20223;-85
2023/05/06 10:38:22;;;;;;;1.63;1.50;;;;;;;20.96;52.16;98124.53;5094137;28;20275;-86
2023/05/06 10:40:49;;;;;;;1.87;1.43;;;;;;;21.03;50.98;98112.88;5093521;28;20261;-87
2023/05/06 10:43:28;;;;;;;2.40;1.17;;;;;;;21.06;53.17;98134.06;5092173;28;20209;-86
2023/05/06 10:46:02;;;;;;;2.40;1.80;;;;;;;21.17;56.77;98176.72;5093924;28;20283;-86
2023/05/06 10:48:31;;;;;;;1.50;1.40;;;;;;;21.09;60.58;98182.09;5093385;28;20691;-85
2023/05/06 10:51:21;;;;;;;1.60;1.50;;;;;;;20.98;54.35;98144.81;5093350;28;20233;-84
2023/05/06 10:54:03;;;;;;;1.93;1.73;;;;;;;20.92;62.74;98193.03;5093347;28;20210;-85
2023/05/06 10:56:32;;;;;;;2.37;1.80;;;;;;;21.02;63.56;98197.22;5090896;28;20620;-85
2023/05/06 10:59:03;;;;;;;2.73;1.93;;;;;;;21.20;56.45;98143.25;5092364;28;20212;-85
2023/05/06 11:01:29;;;;;;;2.33;1.77;;;;;;;21.13;58.61;98161.06;5092081;28;20627;-85
2023/05/06 11:03:57;;;;;;;3.40;2.30;;;;;;;21.11;59.66;98172.03;5092179;28;20295;-84
2023/05/06 11:06:35;;;;;;;2.00;1.80;;;;;;;21.12;59.88;98168.31;5091725;28;20765;-84
2023/05/06 11:09:03;;;;;;;1.83;1.60;;;;;;;21.21;61.72;98172.66;5092661;28;20226;-84
2023/05/06 11:11:49;;;;;;;1.73;1.60;;;;;;;21.17;56.11;98122.97;5092318;28;20212;-84
2023/05/06 11:14:26;;;;;;;2.40;1.70;;;;;;;21.02;53.81;98103.16;5092287;28;20214;-85
2023/05/06 11:16:55;;;;;;;2.20;2.00;;;;;;;21.05;55.29;98128.84;5092377;28;20242;-85
2023/05/06 11:19:24;;;;;;;3.17;2.07;;;;;;;21.03;58.36;98153.19;5091849;28;20254;-84
2023/05/06 11:21:52;;;;;;;1.90;1.80;;;;;;;21.14;62.99;98174.34;5092408;28;20242;-85
2023/05/06 11:24:24;;;;;;;2.20;2.00;;;;;;;21.21;62.90;98178.03;5092170;28;20590;-85
2023/05/06 11:26:51;;;;;;;2.13;1.87;;;;;;;21.22;63.89;98184.25;5091501;28;20237;-85
2023/05/06 11:29:18;;;;;;;2.10;1.70;;;;;;;21.25;64.76;98174.00;5091363;28;20235;-85
2023/05/06 11:31:46;;;;;;;2.00;1.80;;;;;;;21.41;66.66;98190.09;5091815;28;20215;-85